Terminal Aerodrome Forecast
Issued by NWS

Home | Current Version | Previous Version | Text Only | Print | Product List | Glossary On
Versions: 1 2 3 4 5 6 7 8 9 10 11 12 13 14 15 16 17 18 19 20 21 22 23 24 25 26
000
FTUS44 KMOB 211700 RRA
TAFBFM
TAF
KBFM 211754Z 2118/2218 12007KT P6SM SCT029 BKN250
     FM212100 18007KT P6SM VCTS BKN030CB BKN250
     FM220000 20003KT P6SM FEW250
     FM221200 33003KT P6SM SCT250=

USA.gov is the U.S. government's official web portal to all federal, state and local government web resources and services.